createdAt,value
2018-01-23T00:00:01.351Z,6.69
2018-01-23T00:01:01.382Z,6.69
2018-01-23T00:02:01.502Z,6.69
2018-01-23T00:03:02.832Z,6.69
2018-01-23T00:04:01.819Z,6.62
2018-01-23T00:05:01.960Z,6.69
2018-01-23T00:06:01.646Z,6.69
2018-01-23T00:07:01.972Z,6.62
2018-01-23T00:08:02.005Z,6.62
2018-01-23T00:09:01.358Z,6.62
2018-01-23T00:10:01.195Z,6.62
2018-01-23T00:11:01.039Z,6.62
2018-01-23T00:12:01.573Z,6.56
2018-01-23T00:13:01.904Z,6.62
2018-01-23T00:14:01.737Z,6.56
2018-01-23T00:15:02.395Z,6.56
2018-01-23T00:16:02.354Z,6.56
2018-01-23T00:17:02.042Z,6.56
2018-01-23T00:18:02.851Z,6.56
2018-01-23T00:19:02.391Z,6.56
2018-01-23T00:20:01.834Z,6.56
2018-01-23T00:21:01.862Z,6.56
2018-01-23T00:22:01.180Z,6.56
2018-01-23T00:23:01.891Z,6.56
2018-01-23T00:24:02.850Z,6.56
2018-01-23T00:25:01.024Z,6.56
2018-01-23T00:26:01.137Z,6.56
2018-01-23T00:27:01.704Z,6.56
2018-01-23T00:28:01.415Z,6.56
2018-01-23T00:29:01.550Z,6.62
2018-01-23T00:30:02.206Z,6.56
2018-01-23T00:31:01.740Z,6.62
2018-01-23T00:32:02.054Z,6.62
2018-01-23T00:33:02.331Z,6.62
2018-01-23T00:34:01.954Z,6.62
2018-01-23T00:35:03.879Z,6.69
2018-01-23T00:36:01.608Z,6.69
2018-01-23T00:37:02.853Z,6.62
2018-01-23T00:38:01.529Z,6.69
2018-01-23T00:39:01.387Z,6.69
2018-01-23T00:40:01.446Z,6.75
2018-01-23T00:41:01.741Z,6.69
2018-01-23T00:42:01.488Z,6.75
2018-01-23T00:43:01.605Z,6.75
2018-01-23T00:44:01.281Z,6.75
2018-01-23T00:45:01.210Z,6.75
2018-01-23T00:46:01.154Z,6.81
2018-01-23T00:47:02.012Z,6.81
2018-01-23T00:48:01.659Z,6.81
2018-01-23T00:49:02.838Z,6.81
2018-01-23T00:50:02.236Z,6.81
2018-01-23T00:51:01.932Z,6.81
2018-01-23T00:52:01.387Z,6.75
2018-01-23T00:53:01.892Z,6.81
2018-01-23T00:54:01.330Z,6.81
2018-01-23T00:55:01.380Z,6.75
2018-01-23T00:56:03.681Z,6.81
2018-01-23T00:57:02.307Z,6.81
2018-01-23T00:58:02.660Z,6.81
2018-01-23T00:59:01.180Z,6.75
2018-01-23T01:00:01.664Z,6.75
2018-01-23T01:01:03.081Z,6.75
2018-01-23T01:02:01.756Z,6.75
2018-01-23T01:03:01.973Z,6.75
2018-01-23T01:04:01.610Z,6.75
2018-01-23T01:05:01.523Z,6.75
2018-01-23T01:06:01.808Z,6.75
2018-01-23T01:07:02.022Z,6.75
2018-01-23T01:08:02.258Z,6.75
2018-01-23T01:09:02.277Z,6.75
2018-01-23T01:10:02.199Z,6.75
2018-01-23T01:11:01.202Z,6.75
2018-01-23T01:12:03.361Z,6.75
2018-01-23T01:13:02.016Z,6.75
2018-01-23T01:14:01.801Z,6.75
2018-01-23T01:15:02.390Z,6.75
2018-01-23T01:16:02.758Z,6.75
2018-01-23T01:17:01.484Z,6.75
2018-01-23T01:18:01.709Z,6.75
2018-01-23T01:19:02.861Z,6.75
2018-01-23T01:20:01.750Z,6.75
2018-01-23T01:21:01.267Z,6.75
2018-01-23T01:22:01.827Z,6.75
2018-01-23T01:23:01.397Z,6.75
2018-01-23T01:24:01.287Z,6.75
2018-01-23T01:25:02.152Z,6.75
2018-01-23T01:26:01.212Z,6.75
2018-01-23T01:27:02.011Z,6.81
2018-01-23T01:28:02.701Z,6.75
2018-01-23T01:29:02.358Z,6.81
2018-01-23T01:30:02.249Z,6.81
2018-01-23T01:31:02.846Z,6.75
2018-01-23T01:32:03.510Z,6.75
2018-01-23T01:33:02.897Z,6.75
2018-01-23T01:34:03.278Z,6.75
2018-01-23T01:35:01.578Z,6.75
2018-01-23T01:36:02.156Z,6.75
2018-01-23T01:37:02.060Z,6.75
2018-01-23T01:38:01.438Z,6.75
2018-01-23T01:39:02.020Z,6.69
2018-01-23T01:40:01.490Z,6.75
2018-01-23T01:41:01.871Z,6.75
2018-01-23T01:42:03.561Z,6.69
2018-01-23T01:43:01.535Z,6.75
2018-01-23T01:44:01.363Z,6.75
2018-01-23T01:45:01.739Z,6.75
2018-01-23T01:46:04.165Z,6.69
2018-01-23T01:47:01.518Z,6.75
2018-01-23T01:48:02.312Z,6.75
2018-01-23T01:49:01.722Z,6.75
2018-01-23T01:50:05.405Z,6.75
2018-01-23T01:51:01.327Z,6.69
2018-01-23T01:52:02.568Z,6.75
2018-01-23T01:53:01.345Z,6.75
2018-01-23T01:54:01.592Z,6.75
2018-01-23T01:55:02.321Z,6.75
2018-01-23T01:56:01.406Z,6.75
2018-01-23T01:57:02.016Z,6.75
2018-01-23T01:58:01.513Z,6.81
2018-01-23T01:59:02.612Z,6.81
2018-01-23T02:00:02.447Z,6.75
2018-01-23T02:01:04.090Z,6.75
2018-01-23T02:02:02.238Z,6.75
2018-01-23T02:03:02.763Z,6.75
2018-01-23T02:04:01.850Z,6.81
2018-01-23T02:05:01.167Z,6.81
2018-01-23T02:06:01.329Z,6.81
2018-01-23T02:07:02.126Z,6.75
2018-01-23T02:08:01.260Z,6.75
2018-01-23T02:09:03.219Z,6.81
2018-01-23T02:10:01.685Z,6.81
2018-01-23T02:11:02.001Z,6.75
2018-01-23T02:12:02.746Z,6.75
2018-01-23T02:13:01.405Z,6.75
2018-01-23T02:14:01.207Z,6.81
2018-01-23T02:15:01.407Z,6.75
2018-01-23T02:16:03.593Z,6.75
2018-01-23T02:17:01.462Z,6.75
2018-01-23T02:18:02.387Z,6.75
2018-01-23T02:19:04.595Z,6.75
2018-01-23T02:20:01.469Z,6.75
2018-01-23T02:21:01.588Z,6.81
2018-01-23T02:22:01.141Z,6.75
2018-01-23T02:23:01.888Z,6.75
2018-01-23T02:24:01.120Z,6.75
2018-01-23T02:25:02.255Z,6.75
2018-01-23T02:26:02.169Z,6.69
2018-01-23T02:27:02.641Z,6.75
2018-01-23T02:28:04.975Z,6.75
2018-01-23T02:29:01.405Z,6.75
2018-01-23T02:30:01.410Z,6.69
2018-01-23T02:31:01.730Z,6.69
2018-01-23T02:32:01.595Z,6.69
2018-01-23T02:33:01.128Z,6.69
2018-01-23T02:34:01.925Z,6.69
2018-01-23T02:35:01.430Z,6.69
2018-01-23T02:36:01.560Z,6.69
2018-01-23T02:37:02.034Z,6.69
2018-01-23T02:38:02.282Z,6.69
2018-01-23T02:39:03.062Z,6.69
2018-01-23T02:40:02.771Z,6.69
2018-01-23T02:41:01.717Z,6.69
2018-01-23T02:42:01.497Z,6.69
2018-01-23T02:43:05.123Z,6.69
2018-01-23T02:44:02.231Z,6.62
2018-01-23T02:45:02.260Z,6.62
2018-01-23T02:46:01.332Z,6.62
2018-01-23T02:47:01.334Z,6.62
2018-01-23T02:48:03.920Z,6.62
2018-01-23T02:49:02.208Z,6.62
2018-01-23T02:50:01.936Z,6.62
2018-01-23T02:51:01.574Z,6.62
2018-01-23T02:52:03.474Z,6.56
2018-01-23T02:53:03.050Z,6.56
2018-01-23T02:54:01.387Z,6.56
2018-01-23T02:55:02.217Z,6.56
2018-01-23T02:56:02.618Z,6.56
2018-01-23T02:57:01.526Z,6.56
2018-01-23T02:58:02.207Z,6.56
2018-01-23T02:59:02.573Z,6.56
2018-01-23T03:00:04.032Z,6.56
2018-01-23T03:01:02.705Z,6.56
2018-01-23T03:02:01.521Z,6.56
2018-01-23T03:03:01.390Z,6.56
2018-01-23T03:04:02.752Z,6.56
2018-01-23T03:05:01.548Z,6.62
2018-01-23T03:06:01.567Z,6.62
2018-01-23T03:07:01.353Z,6.56
2018-01-23T03:08:01.550Z,6.56
2018-01-23T03:09:01.304Z,6.56
2018-01-23T03:10:03.195Z,6.62
2018-01-23T03:11:01.419Z,6.56
2018-01-23T03:12:02.008Z,6.56
2018-01-23T03:13:07.662Z,6.56
2018-01-23T03:14:02.850Z,6.62
2018-01-23T03:15:02.343Z,6.56
2018-01-23T03:16:03.453Z,6.56
2018-01-23T03:17:02.757Z,6.56
2018-01-23T03:18:02.517Z,6.56
2018-01-23T03:19:02.278Z,6.56
2018-01-23T03:20:01.659Z,6.56
2018-01-23T03:21:01.412Z,6.56
2018-01-23T03:22:03.498Z,6.56
2018-01-23T03:23:03.690Z,6.56
2018-01-23T03:24:01.495Z,6.56
2018-01-23T03:25:01.441Z,6.56
2018-01-23T03:26:01.799Z,6.56
2018-01-23T03:27:01.379Z,6.56
2018-01-23T03:28:02.603Z,6.56
2018-01-23T03:29:01.479Z,6.56
2018-01-23T03:30:02.010Z,6.56
2018-01-23T03:31:01.672Z,6.56
2018-01-23T03:32:02.906Z,6.56
2018-01-23T03:33:02.208Z,6.56
2018-01-23T03:34:02.537Z,6.56
2018-01-23T03:35:03.826Z,6.5
2018-01-23T03:36:01.549Z,6.5
2018-01-23T03:37:02.817Z,6.56
2018-01-23T03:38:01.597Z,6.56
2018-01-23T03:39:03.702Z,6.56
2018-01-23T03:40:03.528Z,6.56
2018-01-23T03:41:02.557Z,6.56
2018-01-23T03:42:04.218Z,6.56
2018-01-23T03:43:05.128Z,6.56
2018-01-23T03:44:04.986Z,6.56
2018-01-23T03:45:01.975Z,6.5
2018-01-23T03:46:02.355Z,6.56
2018-01-23T03:47:01.909Z,6.56
2018-01-23T03:48:02.166Z,6.56
2018-01-23T03:49:01.604Z,6.56
2018-01-23T03:50:02.252Z,6.56
2018-01-23T03:51:01.502Z,6.5
2018-01-23T03:52:01.613Z,6.56
2018-01-23T03:53:01.756Z,6.5
2018-01-23T03:54:03.085Z,6.56
2018-01-23T03:55:01.885Z,6.56
2018-01-23T03:56:01.432Z,6.56
2018-01-23T03:57:01.555Z,6.62
2018-01-23T03:58:02.484Z,6.56
2018-01-23T03:59:02.277Z,6.56
2018-01-23T04:00:02.283Z,6.56
2018-01-23T04:01:01.869Z,6.56
2018-01-23T04:02:02.447Z,6.56
2018-01-23T04:03:01.074Z,6.62
2018-01-23T04:04:01.765Z,6.56
2018-01-23T04:05:03.465Z,6.56
2018-01-23T04:06:03.346Z,6.56
2018-01-23T04:07:02.935Z,6.56
2018-01-23T04:08:01.620Z,6.56
2018-01-23T04:09:03.612Z,6.56
2018-01-23T04:10:02.889Z,6.56
2018-01-23T04:11:01.539Z,6.56
2018-01-23T04:12:02.470Z,6.56
2018-01-23T04:13:01.646Z,6.56
2018-01-23T04:14:01.573Z,6.5
2018-01-23T04:15:04.083Z,6.56
2018-01-23T04:16:03.690Z,6.56
2018-01-23T04:17:01.696Z,6.56
2018-01-23T04:18:02.563Z,6.5
2018-01-23T04:19:02.837Z,6.56
2018-01-23T04:20:01.824Z,6.56
2018-01-23T04:21:02.209Z,6.56
2018-01-23T04:22:03.461Z,6.5
2018-01-23T04:23:03.705Z,6.56
2018-01-23T04:24:02.451Z,6.56
2018-01-23T04:25:02.052Z,6.5
2018-01-23T04:26:02.955Z,6.56
2018-01-23T04:27:01.595Z,6.5
2018-01-23T04:28:02.711Z,6.56
2018-01-23T04:29:03.032Z,6.56
2018-01-23T04:30:02.851Z,6.56
2018-01-23T04:31:02.294Z,6.5
2018-01-23T04:32:02.237Z,6.56
2018-01-23T04:33:01.933Z,6.5
2018-01-23T04:34:01.626Z,6.56
2018-01-23T04:35:02.362Z,6.56
2018-01-23T04:36:02.934Z,6.56
2018-01-23T04:37:02.281Z,6.56
2018-01-23T04:38:02.808Z,6.56
2018-01-23T04:39:03.336Z,6.56
2018-01-23T04:40:02.095Z,6.5
2018-01-23T04:41:01.871Z,6.56
2018-01-23T04:42:01.588Z,6.56
2018-01-23T04:43:02.548Z,6.5
2018-01-23T04:44:02.950Z,6.5
2018-01-23T04:45:02.152Z,6.5
2018-01-23T04:46:02.302Z,6.56
2018-01-23T04:47:02.293Z,6.5
2018-01-23T04:48:02.514Z,6.56
2018-01-23T04:49:01.653Z,6.5
2018-01-23T04:50:01.753Z,6.5
2018-01-23T04:51:02.290Z,6.5
2018-01-23T04:52:01.411Z,6.5
2018-01-23T04:53:02.715Z,6.56
2018-01-23T04:54:02.532Z,6.5
2018-01-23T04:55:01.853Z,6.5
2018-01-23T04:56:03.080Z,6.5
2018-01-23T04:57:02.483Z,6.5
2018-01-23T04:58:01.712Z,6.5
2018-01-23T04:59:02.320Z,6.5
2018-01-23T05:00:03.654Z,6.5
2018-01-23T05:01:01.829Z,6.5
2018-01-23T05:02:02.592Z,6.5
2018-01-23T05:03:01.609Z,6.5
2018-01-23T05:04:01.492Z,6.5
2018-01-23T05:05:01.937Z,6.5
2018-01-23T05:06:01.710Z,6.44
2018-01-23T05:07:02.229Z,6.44
2018-01-23T05:08:01.702Z,6.5
2018-01-23T05:09:03.521Z,6.44
2018-01-23T05:10:01.636Z,6.5
2018-01-23T05:11:02.261Z,6.44
2018-01-23T05:12:03.249Z,6.5
2018-01-23T05:13:02.317Z,6.5
2018-01-23T05:14:03.587Z,6.44
2018-01-23T05:15:02.244Z,6.44
2018-01-23T05:16:01.912Z,6.44
2018-01-23T05:17:02.802Z,6.44
2018-01-23T05:18:03.054Z,6.44
2018-01-23T05:19:03.274Z,6.5
2018-01-23T05:20:04.225Z,6.44
2018-01-23T05:21:01.583Z,6.5
2018-01-23T05:22:03.011Z,6.44
2018-01-23T05:23:03.182Z,6.44
2018-01-23T05:24:01.559Z,6.5
2018-01-23T05:25:01.860Z,6.5
2018-01-23T05:26:02.275Z,6.44
2018-01-23T05:27:04.200Z,6.44
2018-01-23T05:28:02.450Z,6.5
2018-01-23T05:29:02.090Z,6.44
2018-01-23T05:30:03.944Z,6.5
2018-01-23T05:31:04.468Z,6.5
2018-01-23T05:32:01.509Z,6.44
2018-01-23T05:33:03.335Z,6.44
2018-01-23T05:34:02.728Z,6.5
2018-01-23T05:35:01.784Z,6.44
2018-01-23T05:36:03.047Z,6.44
2018-01-23T05:37:01.831Z,6.44
2018-01-23T05:38:01.768Z,6.44
2018-01-23T05:39:01.660Z,6.44
2018-01-23T05:40:02.623Z,6.44
2018-01-23T05:41:03.385Z,6.44
2018-01-23T05:42:01.569Z,6.44
2018-01-23T05:43:01.956Z,6.37
2018-01-23T05:44:01.804Z,6.44
2018-01-23T05:45:01.997Z,6.37
2018-01-23T05:46:02.182Z,6.44
2018-01-23T05:47:02.474Z,6.37
2018-01-23T05:48:01.581Z,6.44
2018-01-23T05:49:01.610Z,6.37
2018-01-23T05:50:02.740Z,6.37
2018-01-23T05:51:02.394Z,6.37
2018-01-23T05:52:01.501Z,6.37
2018-01-23T05:53:02.639Z,6.37
2018-01-23T05:54:01.840Z,6.37
2018-01-23T05:55:01.744Z,6.37
2018-01-23T05:56:01.703Z,6.37
2018-01-23T05:57:01.912Z,6.37
2018-01-23T05:58:01.986Z,6.37
2018-01-23T05:59:01.838Z,6.37
2018-01-23T06:00:03.262Z,6.37
2018-01-23T06:01:01.993Z,6.44
2018-01-23T06:02:01.676Z,6.37
2018-01-23T06:03:01.762Z,6.37
2018-01-23T06:04:03.200Z,6.37
2018-01-23T06:05:02.636Z,6.37
2018-01-23T06:06:01.554Z,6.44
2018-01-23T06:07:02.161Z,6.37
2018-01-23T06:08:02.092Z,6.44
2018-01-23T06:09:01.593Z,6.44
2018-01-23T06:10:02.598Z,6.37
2018-01-23T06:11:01.800Z,6.44
2018-01-23T06:12:01.979Z,6.44
2018-01-23T06:13:02.601Z,6.5
2018-01-23T06:14:01.859Z,6.44
2018-01-23T06:15:01.806Z,6.44
2018-01-23T06:16:03.732Z,6.5
2018-01-23T06:17:02.732Z,6.5
2018-01-23T06:18:01.871Z,6.5
2018-01-23T06:19:02.661Z,6.5
2018-01-23T06:20:03.480Z,6.5
2018-01-23T06:21:06.839Z,6.5
2018-01-23T06:22:02.612Z,6.5
2018-01-23T06:23:03.129Z,6.5
2018-01-23T06:24:02.090Z,6.5
2018-01-23T06:25:03.002Z,6.5
2018-01-23T06:26:02.859Z,6.5
2018-01-23T06:27:04.087Z,6.5
2018-01-23T06:28:03.495Z,6.44
2018-01-23T06:29:02.291Z,6.5
2018-01-23T06:30:02.913Z,6.44
2018-01-23T06:31:01.776Z,6.44
2018-01-23T06:32:02.072Z,6.44
2018-01-23T06:33:03.401Z,6.44
2018-01-23T06:34:01.940Z,6.37
2018-01-23T06:35:03.304Z,6.44
2018-01-23T06:36:01.747Z,6.37
2018-01-23T06:37:02.407Z,6.44
2018-01-23T06:38:03.781Z,6.44
2018-01-23T06:39:01.933Z,6.37
2018-01-23T06:40:03.134Z,6.37
2018-01-23T06:41:03.000Z,6.37
2018-01-23T06:42:03.220Z,6.44
2018-01-23T06:43:01.858Z,6.37
2018-01-23T06:44:02.486Z,6.37
2018-01-23T06:45:02.533Z,6.37
2018-01-23T06:46:02.709Z,6.37
2018-01-23T06:47:02.678Z,6.37
2018-01-23T06:48:03.458Z,6.37
2018-01-23T06:49:03.167Z,6.37
2018-01-23T06:50:02.882Z,6.31
2018-01-23T06:51:02.769Z,6.37
2018-01-23T06:52:01.930Z,6.31
2018-01-23T06:53:03.856Z,6.37
2018-01-23T06:54:04.592Z,6.31
2018-01-23T06:55:02.462Z,6.37
2018-01-23T06:56:02.656Z,6.31
2018-01-23T06:57:02.350Z,6.31
2018-01-23T06:58:01.823Z,6.31
2018-01-23T06:59:03.142Z,6.31
2018-01-23T07:00:02.441Z,6.37
2018-01-23T07:01:01.723Z,6.31
2018-01-23T07:02:03.352Z,6.31
2018-01-23T07:03:01.602Z,6.31
2018-01-23T07:04:02.906Z,6.31
2018-01-23T07:05:02.677Z,6.31
2018-01-23T07:06:01.773Z,6.31
2018-01-23T07:07:01.886Z,6.25
2018-01-23T07:08:02.489Z,6.31
2018-01-23T07:09:03.684Z,6.31
2018-01-23T07:10:03.895Z,6.31
2018-01-23T07:11:03.007Z,6.31
2018-01-23T07:12:02.410Z,6.31
2018-01-23T07:13:01.786Z,6.31
2018-01-23T07:14:02.088Z,6.25
2018-01-23T07:15:01.788Z,6.31
2018-01-23T07:16:03.700Z,6.31
2018-01-23T07:17:02.287Z,6.25
2018-01-23T07:18:01.887Z,6.31
2018-01-23T07:19:02.410Z,6.25
2018-01-23T07:20:02.392Z,6.31
2018-01-23T07:21:01.779Z,6.31
2018-01-23T07:22:01.724Z,6.31
2018-01-23T07:23:05.521Z,6.25
2018-01-23T07:24:03.172Z,6.25
2018-01-23T07:25:02.774Z,6.31
2018-01-23T07:26:02.998Z,6.31
2018-01-23T07:27:01.749Z,6.25
2018-01-23T07:28:02.643Z,6.25
2018-01-23T07:29:02.445Z,6.31
2018-01-23T07:30:04.928Z,6.25
2018-01-23T07:31:03.425Z,6.25
2018-01-23T07:32:05.420Z,6.25
2018-01-23T07:33:01.619Z,6.25
2018-01-23T07:34:01.706Z,6.25
2018-01-23T07:35:01.876Z,6.25
2018-01-23T07:36:01.821Z,6.25
2018-01-23T07:37:02.237Z,6.25
2018-01-23T07:38:01.125Z,6.25
2018-01-23T07:39:01.149Z,6.25
2018-01-23T07:40:01.321Z,6.25
2018-01-23T07:41:01.162Z,6.25
2018-01-23T07:42:01.387Z,6.25
2018-01-23T07:43:01.141Z,6.25
2018-01-23T07:44:01.199Z,6.31
2018-01-23T07:45:01.074Z,6.25
2018-01-23T07:46:01.695Z,6.25
2018-01-23T07:47:01.368Z,6.25
2018-01-23T07:48:01.197Z,6.25
2018-01-23T07:49:01.127Z,6.25
2018-01-23T07:50:01.249Z,6.25
2018-01-23T07:51:01.285Z,6.25
2018-01-23T07:52:01.122Z,6.25
2018-01-23T07:53:01.304Z,6.25
2018-01-23T07:54:01.148Z,6.31
2018-01-23T07:55:01.233Z,6.25
2018-01-23T07:56:01.204Z,6.25
2018-01-23T07:57:01.222Z,6.31
2018-01-23T07:58:01.266Z,6.25
2018-01-23T07:59:01.158Z,6.25
2018-01-23T08:00:01.147Z,6.25
2018-01-23T08:01:01.304Z,6.25
2018-01-23T08:02:01.265Z,6.31
2018-01-23T08:03:02.534Z,6.31
2018-01-23T08:04:01.144Z,6.31
2018-01-23T08:05:01.159Z,6.31
2018-01-23T08:06:01.320Z,6.31
2018-01-23T08:07:01.359Z,6.31
2018-01-23T08:08:01.468Z,6.31
2018-01-23T08:09:01.329Z,6.31
2018-01-23T08:10:01.295Z,6.31
2018-01-23T08:11:01.812Z,6.31
2018-01-23T08:12:01.331Z,6.31
2018-01-23T08:13:01.524Z,6.31
2018-01-23T08:14:01.289Z,6.31
2018-01-23T08:15:01.297Z,6.31
2018-01-23T08:16:01.174Z,6.31
2018-01-23T08:17:01.344Z,6.31
2018-01-23T08:18:01.474Z,6.31
2018-01-23T08:19:01.182Z,6.31
2018-01-23T08:20:01.303Z,6.31
2018-01-23T08:21:01.308Z,6.31
2018-01-23T08:22:01.266Z,6.31
2018-01-23T08:23:01.334Z,6.31
2018-01-23T08:24:01.256Z,6.31
2018-01-23T08:25:01.496Z,6.31
2018-01-23T08:26:01.396Z,6.31
2018-01-23T08:27:01.309Z,6.31
2018-01-23T08:28:01.368Z,6.31
2018-01-23T08:29:02.132Z,6.31
2018-01-23T08:30:06.268Z,6.31
2018-01-23T08:31:03.973Z,6.37
2018-01-23T08:32:03.105Z,6.31
2018-01-23T08:33:01.522Z,6.31
2018-01-23T08:34:02.574Z,6.31
2018-01-23T08:35:02.931Z,6.37
2018-01-23T08:36:01.194Z,6.37
2018-01-23T08:37:01.919Z,6.37
2018-01-23T08:38:03.396Z,6.37
2018-01-23T08:39:02.979Z,6.37
2018-01-23T08:40:03.028Z,6.37
2018-01-23T08:41:01.460Z,6.37
2018-01-23T08:42:01.410Z,6.37
2018-01-23T08:43:01.200Z,6.37
2018-01-23T08:44:01.614Z,6.44
2018-01-23T08:45:01.380Z,6.44
2018-01-23T08:46:01.338Z,6.44
2018-01-23T08:47:01.415Z,6.44
2018-01-23T08:48:01.503Z,6.37
2018-01-23T08:49:01.351Z,6.44
2018-01-23T08:50:01.399Z,6.44
2018-01-23T08:51:01.497Z,6.5
2018-01-23T08:52:01.352Z,6.44
2018-01-23T08:53:01.899Z,6.5
2018-01-23T08:54:01.553Z,6.5
2018-01-23T08:55:01.209Z,6.5
2018-01-23T08:56:01.486Z,6.5
2018-01-23T08:57:01.415Z,6.5
2018-01-23T08:58:01.340Z,6.5
2018-01-23T08:59:01.421Z,6.5
2018-01-23T09:00:01.369Z,6.56
2018-01-23T09:01:01.422Z,6.56
2018-01-23T09:02:01.520Z,6.56
2018-01-23T09:03:01.360Z,6.56
2018-01-23T09:04:01.399Z,6.56
2018-01-23T09:05:01.362Z,6.56
2018-01-23T09:06:01.444Z,6.56
2018-01-23T09:07:01.370Z,6.56
2018-01-23T09:08:01.452Z,6.56
2018-01-23T09:09:01.400Z,6.62
2018-01-23T09:10:01.348Z,6.62
2018-01-23T09:11:01.502Z,6.62
2018-01-23T09:12:01.310Z,6.62
2018-01-23T09:13:01.428Z,6.62
2018-01-23T09:14:01.425Z,6.62
2018-01-23T09:15:01.507Z,6.69
2018-01-23T09:16:01.254Z,6.62
2018-01-23T09:17:01.468Z,6.62
2018-01-23T09:18:01.451Z,6.62
2018-01-23T09:19:01.855Z,6.62
2018-01-23T09:20:01.599Z,6.69
2018-01-23T09:21:01.290Z,6.62
2018-01-23T09:22:01.364Z,6.69
2018-01-23T09:23:01.341Z,6.62
2018-01-23T09:24:02.393Z,6.69
2018-01-23T09:25:01.436Z,6.69
2018-01-23T09:26:01.416Z,6.69
2018-01-23T09:27:01.405Z,6.69
2018-01-23T09:28:01.381Z,6.69
2018-01-23T09:29:01.381Z,6.75
2018-01-23T09:30:01.390Z,6.69
2018-01-23T09:31:01.508Z,6.75
2018-01-23T09:32:01.497Z,6.69
2018-01-23T09:33:02.028Z,6.75
2018-01-23T09:34:01.382Z,6.75
2018-01-23T09:35:01.364Z,6.69
2018-01-23T09:36:01.461Z,6.75
2018-01-23T09:37:01.454Z,6.69
2018-01-23T09:38:01.564Z,6.69
2018-01-23T09:39:01.535Z,6.75
2018-01-23T09:40:01.479Z,6.75
2018-01-23T09:41:01.631Z,6.75
2018-01-23T09:42:01.477Z,6.75
2018-01-23T09:43:01.520Z,6.75
2018-01-23T09:44:01.477Z,6.75
2018-01-23T09:45:01.612Z,6.75
2018-01-23T09:46:01.490Z,6.81
2018-01-23T09:47:01.383Z,6.81
2018-01-23T09:48:01.402Z,6.75
2018-01-23T09:49:01.936Z,6.81
2018-01-23T09:50:01.440Z,6.75
2018-01-23T09:51:01.535Z,6.75
2018-01-23T09:52:01.856Z,6.75
2018-01-23T09:53:02.078Z,6.75
2018-01-23T09:54:01.279Z,6.75
2018-01-23T09:55:01.345Z,6.75
2018-01-23T09:56:01.536Z,6.75
2018-01-23T09:57:01.933Z,6.75
2018-01-23T09:58:01.497Z,6.81
2018-01-23T09:59:01.493Z,6.75
2018-01-23T10:00:01.574Z,6.75
2018-01-23T10:01:01.346Z,6.81
2018-01-23T10:02:01.467Z,6.75
2018-01-23T10:03:01.680Z,6.75
2018-01-23T10:04:01.522Z,6.81
2018-01-23T10:05:01.488Z,6.81
2018-01-23T10:06:01.553Z,6.81
2018-01-23T10:07:01.541Z,6.81
2018-01-23T10:08:01.642Z,6.81
2018-01-23T10:09:01.777Z,6.87
2018-01-23T10:10:01.499Z,6.87
2018-01-23T10:11:01.445Z,6.87
2018-01-23T10:12:01.622Z,6.87
2018-01-23T10:13:01.564Z,6.87
2018-01-23T10:14:01.571Z,6.87
2018-01-23T10:15:01.563Z,6.87
2018-01-23T10:16:01.620Z,6.94
2018-01-23T10:17:01.508Z,6.94
2018-01-23T10:18:01.603Z,6.94
2018-01-23T10:19:01.506Z,6.94
2018-01-23T10:20:01.545Z,6.94
2018-01-23T10:21:01.946Z,7
2018-01-23T10:22:01.544Z,6.94
2018-01-23T10:23:01.628Z,7
2018-01-23T10:24:01.572Z,7
2018-01-23T10:25:01.552Z,7.06
2018-01-23T10:26:01.559Z,7
2018-01-23T10:27:01.610Z,7
2018-01-23T10:28:01.563Z,7.06
2018-01-23T10:29:01.547Z,7.06
2018-01-23T10:30:01.516Z,7.06
2018-01-23T10:31:01.672Z,7.06
2018-01-23T10:32:01.462Z,7.06
2018-01-23T10:33:01.517Z,7.06
2018-01-23T10:34:01.587Z,7.06
2018-01-23T10:35:01.679Z,7.12
2018-01-23T10:36:01.329Z,7.12
2018-01-23T10:37:01.541Z,7.12
2018-01-23T10:38:01.786Z,7.12
2018-01-23T10:39:01.476Z,7.19
2018-01-23T10:40:01.562Z,7.12
2018-01-23T10:41:02.011Z,7.12
2018-01-23T10:42:01.540Z,7.19
2018-01-23T10:43:01.686Z,7.12
2018-01-23T10:44:01.714Z,7.19
2018-01-23T10:45:01.727Z,7.19
2018-01-23T10:46:01.621Z,7.19
2018-01-23T10:47:01.548Z,7.19
2018-01-23T10:48:01.663Z,7.19
2018-01-23T10:49:01.814Z,7.19
2018-01-23T10:50:01.692Z,7.19
2018-01-23T10:51:01.569Z,7.19
2018-01-23T10:52:01.581Z,7.19
2018-01-23T10:53:01.557Z,7.19
2018-01-23T10:54:01.682Z,7.25
2018-01-23T10:55:01.572Z,7.25
2018-01-23T10:56:01.670Z,7.31
2018-01-23T10:57:01.410Z,7.31
2018-01-23T10:58:01.505Z,7.31
2018-01-23T10:59:01.678Z,7.31
2018-01-23T11:00:01.659Z,7.31
2018-01-23T11:01:01.641Z,7.31
2018-01-23T11:02:01.650Z,7.31
2018-01-23T11:03:01.606Z,7.31
2018-01-23T11:04:01.640Z,7.31
2018-01-23T11:05:01.592Z,7.37
2018-01-23T11:06:01.807Z,7.37
2018-01-23T11:07:01.807Z,7.37
2018-01-23T11:08:01.755Z,7.37
2018-01-23T11:09:01.850Z,7.37
2018-01-23T11:10:01.827Z,7.37
2018-01-23T11:11:01.731Z,7.44
2018-01-23T11:12:01.689Z,7.37
2018-01-23T11:13:01.750Z,7.44
2018-01-23T11:14:01.771Z,7.44
2018-01-23T11:15:01.749Z,7.5
2018-01-23T11:16:01.755Z,7.5
2018-01-23T11:17:01.695Z,7.5
2018-01-23T11:18:01.972Z,7.5
2018-01-23T11:19:01.889Z,7.56
2018-01-23T11:20:01.784Z,7.56
2018-01-23T11:21:01.739Z,7.5
2018-01-23T11:22:01.936Z,7.56
2018-01-23T11:23:02.410Z,7.56
2018-01-23T11:24:01.937Z,7.62
2018-01-23T11:25:01.676Z,7.62
2018-01-23T11:26:01.705Z,7.62
2018-01-23T11:27:01.590Z,7.62
2018-01-23T11:28:01.764Z,7.56
2018-01-23T11:29:01.948Z,7.62
2018-01-23T11:30:01.773Z,7.62
2018-01-23T11:31:01.732Z,7.62
2018-01-23T11:32:01.910Z,7.69
2018-01-23T11:33:01.771Z,7.69
2018-01-23T11:34:01.910Z,7.69
2018-01-23T11:35:01.842Z,7.69
2018-01-23T11:36:01.729Z,7.69
2018-01-23T11:37:01.733Z,7.69
2018-01-23T11:38:01.680Z,7.75
2018-01-23T11:39:01.891Z,7.75
2018-01-23T11:40:02.085Z,7.75
2018-01-23T11:41:01.905Z,7.75
2018-01-23T11:42:01.795Z,7.75
2018-01-23T11:43:01.867Z,7.75
2018-01-23T11:44:01.717Z,7.75
2018-01-23T11:45:01.827Z,7.75
2018-01-23T11:46:01.995Z,7.81
2018-01-23T11:47:01.777Z,7.81
2018-01-23T11:48:01.784Z,7.81
2018-01-23T11:49:01.733Z,7.81
2018-01-23T11:50:02.099Z,7.81
2018-01-23T11:51:01.837Z,7.81
2018-01-23T11:52:01.928Z,7.81
2018-01-23T11:53:01.883Z,7.81
2018-01-23T11:54:02.162Z,7.87
2018-01-23T11:55:01.954Z,7.87
2018-01-23T11:56:02.160Z,7.87
2018-01-23T11:57:01.859Z,7.87
2018-01-23T11:58:01.763Z,7.87
2018-01-23T11:59:01.706Z,7.87
2018-01-23T12:00:01.876Z,7.87
2018-01-23T12:01:01.886Z,7.87
2018-01-23T12:02:01.858Z,7.87
2018-01-23T12:03:01.950Z,7.87
2018-01-23T12:04:01.717Z,7.87
2018-01-23T12:05:01.864Z,7.87
2018-01-23T12:06:02.006Z,7.87
2018-01-23T12:07:01.791Z,7.94
2018-01-23T12:08:01.785Z,7.87
2018-01-23T12:09:00.929Z,7.87
2018-01-23T12:10:00.909Z,7.94
2018-01-23T12:11:01.008Z,7.87
2018-01-23T12:12:00.855Z,7.87
2018-01-23T12:13:01.247Z,7.87
2018-01-23T12:14:01.005Z,7.94
2018-01-23T12:15:00.959Z,7.94
2018-01-23T12:16:00.821Z,7.94
2018-01-23T12:17:00.831Z,7.94
2018-01-23T12:18:00.956Z,7.94
2018-01-23T12:19:00.975Z,7.94
2018-01-23T12:20:00.777Z,7.94
2018-01-23T12:21:00.768Z,7.94
2018-01-23T12:22:00.785Z,7.94
2018-01-23T12:23:00.872Z,7.94
2018-01-23T12:24:01.950Z,7.94
2018-01-23T12:25:00.965Z,7.94
2018-01-23T12:26:00.812Z,7.94
2018-01-23T12:27:00.845Z,7.94
2018-01-23T12:28:00.828Z,7.94
2018-01-23T12:29:00.860Z,7.94
2018-01-23T12:30:00.859Z,8
2018-01-23T12:31:00.954Z,7.94
2018-01-23T12:32:00.792Z,8
2018-01-23T12:33:00.941Z,8
2018-01-23T12:34:01.087Z,8
2018-01-23T12:35:00.863Z,7.94
2018-01-23T12:36:01.026Z,7.94
2018-01-23T12:37:00.836Z,8
2018-01-23T12:38:00.783Z,7.94
2018-01-23T12:39:01.255Z,7.94
2018-01-23T12:40:01.057Z,7.94
2018-01-23T12:41:01.317Z,7.94
2018-01-23T12:42:01.307Z,7.94
2018-01-23T12:43:01.322Z,7.94
2018-01-23T12:44:01.317Z,8
2018-01-23T12:45:01.276Z,7.94
2018-01-23T12:46:01.251Z,7.94
2018-01-23T12:47:01.188Z,7.94
2018-01-23T12:48:01.162Z,8
2018-01-23T12:49:01.236Z,7.94
2018-01-23T12:50:01.015Z,7.94
2018-01-23T12:51:01.454Z,7.94
2018-01-23T12:52:01.442Z,7.94
2018-01-23T12:53:01.316Z,8
2018-01-23T12:54:01.270Z,8
2018-01-23T12:55:01.184Z,8
2018-01-23T12:56:01.349Z,8
2018-01-23T12:57:01.183Z,8.06
2018-01-23T12:58:01.438Z,8.06
2018-01-23T12:59:01.525Z,8.06
2018-01-23T13:00:01.159Z,8.06
2018-01-23T13:01:01.239Z,8.06
2018-01-23T13:02:00.995Z,8.06
2018-01-23T13:03:01.274Z,8.06
2018-01-23T13:04:01.404Z,8.13
2018-01-23T13:05:01.107Z,8.06
2018-01-23T13:06:01.309Z,8.13
2018-01-23T13:07:01.247Z,8.13
2018-01-23T13:08:01.372Z,8.13
2018-01-23T13:09:01.545Z,8.13
2018-01-23T13:10:01.461Z,8.13
2018-01-23T13:11:01.457Z,8.13
2018-01-23T13:12:01.886Z,8.13
2018-01-23T13:13:01.357Z,8.19
2018-01-23T13:14:01.143Z,8.19
2018-01-23T13:15:01.390Z,8.19
2018-01-23T13:16:01.214Z,8.19
2018-01-23T13:17:01.100Z,8.19
2018-01-23T13:18:01.274Z,8.19
2018-01-23T13:19:01.226Z,8.19
2018-01-23T13:20:01.416Z,8.19
2018-01-23T13:21:01.210Z,8.19
2018-01-23T13:22:01.291Z,8.25